createdAt,value
2022-09-23T00:00:48.871Z,97236.63
2022-09-23T00:03:16.191Z,97215.41
2022-09-23T00:05:43.024Z,97228.47
2022-09-23T00:08:11.241Z,97211.16
2022-09-23T00:11:27.712Z,97185.25
2022-09-23T00:13:58.682Z,97198.78
2022-09-23T00:16:33.829Z,97210.09
2022-09-23T00:19:01.606Z,97230.59
2022-09-23T00:21:28.111Z,97230.22
2022-09-23T00:23:54.546Z,97215.69
2022-09-23T00:26:21.595Z,97236.31
2022-09-23T00:28:48.975Z,97243.28
2022-09-23T00:31:20.980Z,97246.50
2022-09-23T00:33:47.663Z,97256.44
2022-09-23T00:36:18.002Z,97242.22
2022-09-23T00:38:44.394Z,97239.72
2022-09-23T00:41:11.785Z,97242.47
2022-09-23T00:43:51.573Z,97244.13
2022-09-23T00:46:39.163Z,97228.47
2022-09-23T00:49:08.980Z,97241.75
2022-09-23T00:51:38.610Z,97257.38
2022-09-23T00:54:06.334Z,97237.69
2022-09-23T00:56:33.251Z,97231.03
2022-09-23T00:59:00.357Z,97248.81
2022-09-23T01:01:26.795Z,97229.81
2022-09-23T01:03:54.377Z,97211.06
2022-09-23T01:06:20.852Z,97208.56
2022-09-23T01:08:47.765Z,97199.16
2022-09-23T01:11:35.981Z,97167.84
2022-09-23T01:14:32.572Z,97144.84
2022-09-23T01:17:07.384Z,97145.31
2022-09-23T01:19:36.865Z,97148.03
2022-09-23T01:22:11.814Z,97129.41
2022-09-23T01:25:10.706Z,97129.41
2022-09-23T01:27:51.298Z,97126.31
2022-09-23T01:30:47.523Z,97129.28
2022-09-23T01:33:22.214Z,97114.56
2022-09-23T01:36:09.501Z,97131.00
2022-09-23T01:38:40.743Z,97108.44
2022-09-23T01:41:19.387Z,97082.34
2022-09-23T01:44:02.227Z,97070.03
2022-09-23T01:46:34.036Z,97080.69
2022-09-23T01:49:19.511Z,97102.53
2022-09-23T01:51:48.291Z,97117.88
2022-09-23T01:54:25.104Z,97107.44
2022-09-23T01:56:58.953Z,97078.03
2022-09-23T01:59:30.248Z,97077.81
2022-09-23T02:01:59.107Z,97053.41
2022-09-23T02:04:32.375Z,97058.53
2022-09-23T02:07:02.036Z,97051.50
2022-09-23T02:09:31.943Z,97069.16
2022-09-23T02:12:00.691Z,97085.53
2022-09-23T02:14:58.590Z,97107.69
2022-09-23T02:17:40.423Z,97112.16
2022-09-23T02:20:07.341Z,97125.66
2022-09-23T02:22:41.316Z,97146.75
2022-09-23T02:25:08.803Z,97148.84
2022-09-23T02:27:50.748Z,97166.59
2022-09-23T02:30:21.330Z,97166.81
2022-09-23T02:32:53.729Z,97161.19
2022-09-23T02:35:24.426Z,97162.50
2022-09-23T02:38:00.845Z,97145.16
2022-09-23T02:40:39.110Z,97138.53
2022-09-23T02:43:22.215Z,97100.59
2022-09-23T02:45:48.654Z,97074.53
2022-09-23T02:48:22.786Z,97059.19
2022-09-23T02:50:49.260Z,97057.44
2022-09-23T02:53:16.137Z,97047.97
2022-09-23T02:55:42.843Z,97017.38
2022-09-23T02:58:09.378Z,96968.56
2022-09-23T03:01:02.680Z,96989.38
2022-09-23T03:03:53.749Z,96968.66
2022-09-23T03:06:46.761Z,96938.22
2022-09-23T03:09:18.870Z,96931.09
2022-09-23T03:11:49.157Z,96917.97
2022-09-23T03:14:21.942Z,96911.91
2022-09-23T03:17:21.956Z,96947.00
2022-09-23T03:20:03.256Z,96964.72
2022-09-23T03:22:42.760Z,96980.59
2022-09-23T03:25:12.203Z,96978.69
2022-09-23T03:27:39.012Z,96969.91
2022-09-23T03:30:06.529Z,96966.81
2022-09-23T03:32:32.921Z,96954.53
2022-09-23T03:35:00.622Z,96959.25
2022-09-23T03:37:41.769Z,96975.31
2022-09-23T03:40:33.495Z,96995.75
2022-09-23T03:43:01.318Z,97004.88
2022-09-23T03:45:32.119Z,97017.16
2022-09-23T03:47:58.536Z,96961.28
2022-09-23T03:50:24.939Z,96952.53
2022-09-23T03:52:51.330Z,96934.09
2022-09-23T03:55:18.565Z,96950.66
2022-09-23T03:57:45.278Z,96936.19
2022-09-23T04:00:12.343Z,96924.81
2022-09-23T04:02:39.108Z,96899.72
2022-09-23T04:05:06.397Z,96899.03
2022-09-23T04:07:32.802Z,96905.25
2022-09-23T04:09:59.197Z,96900.91
2022-09-23T04:12:25.570Z,96899.44
2022-09-23T04:14:51.953Z,96885.47
2022-09-23T04:17:18.340Z,96888.31
2022-09-23T04:19:45.112Z,96884.06
2022-09-23T04:22:11.506Z,96884.28
2022-09-23T04:24:37.952Z,96882.63
2022-09-23T04:27:04.499Z,96884.75
2022-09-23T04:29:30.890Z,96907.44
2022-09-23T04:31:57.774Z,96919.97
2022-09-23T04:34:24.311Z,96944.53
2022-09-23T04:36:50.843Z,96945.00
2022-09-23T04:39:17.311Z,96966.03
2022-09-23T04:41:44.251Z,96992.25
2022-09-23T04:44:13.976Z,97009.06
2022-09-23T04:46:46.645Z,97006.75
2022-09-23T04:49:14.031Z,97014.66
2022-09-23T04:51:43.694Z,97010.41
2022-09-23T04:54:11.773Z,96994.59
2022-09-23T04:56:38.223Z,96963.97
2022-09-23T04:59:04.622Z,96954.41
2022-09-23T05:01:32.060Z,96924.81
2022-09-23T05:04:02.315Z,96899.50
2022-09-23T05:06:29.598Z,96884.38
2022-09-23T05:08:56.877Z,96844.19
2022-09-23T05:11:24.116Z,96828.34
2022-09-23T05:13:51.878Z,96814.38
2022-09-23T05:16:18.726Z,96808.97
2022-09-23T05:18:45.533Z,96792.28
2022-09-23T05:21:13.235Z,96768.75
2022-09-23T05:23:40.562Z,96781.28
2022-09-23T05:26:08.680Z,96774.16
2022-09-23T05:28:35.181Z,96749.78
2022-09-23T05:31:20.616Z,96695.59
2022-09-23T05:33:54.613Z,96659.50
2022-09-23T05:36:21.602Z,96616.56
2022-09-23T05:38:49.790Z,96581.28
2022-09-23T05:41:16.371Z,96560.19
2022-09-23T05:43:42.835Z,96549.53
2022-09-23T05:46:28.694Z,96535.56
2022-09-23T05:48:59.896Z,96513.53
2022-09-23T05:51:30.901Z,96481.31
2022-09-23T05:54:02.724Z,96470.66
2022-09-23T05:56:29.258Z,96437.50
2022-09-23T05:58:57.454Z,96415.47
2022-09-23T06:01:28.381Z,96399.19
2022-09-23T06:03:55.859Z,96375.38
2022-09-23T06:06:28.860Z,96354.84
2022-09-23T06:08:55.340Z,96325.78
2022-09-23T06:11:21.743Z,96282.50
2022-09-23T06:13:49.263Z,96212.13
2022-09-23T06:16:15.864Z,96175.13
2022-09-23T06:18:43.525Z,96140.44
2022-09-23T06:21:14.645Z,96084.16
2022-09-23T06:23:42.154Z,96053.25
2022-09-23T06:26:10.156Z,96028.19
2022-09-23T06:28:37.487Z,95998.78
2022-09-23T06:31:07.615Z,95971.03
2022-09-23T06:33:37.567Z,95957.25
2022-09-23T06:36:05.389Z,95941.06
2022-09-23T06:38:34.022Z,95919.31
2022-09-23T06:41:00.910Z,95899.47
2022-09-23T06:43:27.295Z,95878.00
2022-09-23T06:45:57.128Z,95853.81
2022-09-23T06:48:26.975Z,95825.16
2022-09-23T06:50:53.819Z,95805.81
2022-09-23T06:53:23.639Z,95771.94
2022-09-23T06:55:59.854Z,95741.03
2022-09-23T06:58:26.836Z,95713.16
2022-09-23T07:00:54.036Z,95679.09
2022-09-23T07:03:22.039Z,95663.16
2022-09-23T07:05:48.448Z,95637.69
2022-09-23T07:08:14.830Z,95623.53
2022-09-23T07:10:41.205Z,95609.34
2022-09-23T07:13:07.595Z,95616.88
2022-09-23T07:15:34.023Z,95660.78
2022-09-23T07:18:00.484Z,95990.09
2022-09-23T07:20:26.854Z,96247.75
2022-09-23T07:22:53.233Z,96632.31
2022-09-23T07:25:19.901Z,97170.91
2022-09-23T07:27:47.338Z,97159.91
2022-09-23T07:30:23.503Z,97113.81
2022-09-23T07:32:52.091Z,97368.81
2022-09-23T07:35:18.951Z,97956.94
2022-09-23T07:37:46.050Z,98154.72
2022-09-23T07:40:12.638Z,98260.06
2022-09-23T07:42:40.799Z,98394.22
2022-09-23T07:45:08.972Z,98163.53
2022-09-23T07:47:35.695Z,97819.41
2022-09-23T07:50:02.152Z,97649.31
2022-09-23T07:52:28.529Z,97852.81
2022-09-23T07:54:54.893Z,98064.50
2022-09-23T07:57:21.324Z,98053.34
2022-09-23T07:59:47.711Z,98160.19
2022-09-23T08:02:16.311Z,98030.69
2022-09-23T08:04:42.780Z,98091.75
2022-09-23T08:07:09.597Z,97904.25
2022-09-23T08:09:41.255Z,97765.50
2022-09-23T08:12:12.728Z,97946.03
2022-09-23T08:14:42.119Z,98007.19
2022-09-23T08:17:08.554Z,98158.81
2022-09-23T08:19:35.093Z,98209.84
2022-09-23T08:22:04.233Z,98325.63
2022-09-23T08:24:33.690Z,98501.75
2022-09-23T08:27:00.141Z,98763.75
2022-09-23T08:29:26.703Z,98642.66
2022-09-23T08:31:53.281Z,98976.81
2022-09-23T08:34:20.641Z,99022.84
2022-09-23T08:36:47.175Z,98977.97
2022-09-23T08:39:15.315Z,98921.59
2022-09-23T08:41:58.403Z,99055.53
2022-09-23T08:44:26.652Z,99056.28
2022-09-23T08:47:04.706Z,98945.63
2022-09-23T08:49:33.362Z,98869.47
2022-09-23T08:52:00.066Z,99133.09
2022-09-23T08:54:27.667Z,99172.56
2022-09-23T08:56:56.075Z,99320.66
2022-09-23T08:59:51.895Z,99214.63
2022-09-23T09:02:19.323Z,99266.91
2022-09-23T09:04:47.619Z,99235.50
2022-09-23T09:07:36.175Z,99119.81
2022-09-23T09:10:06.572Z,99186.31
2022-09-23T09:12:44.382Z,99099.13
2022-09-23T09:15:13.085Z,99203.91
2022-09-23T09:18:04.046Z,99281.78
2022-09-23T09:21:00.509Z,99290.16
2022-09-23T09:23:43.744Z,99450.84
2022-09-23T09:26:39.632Z,99548.38
2022-09-23T09:29:33.789Z,99594.28
2022-09-23T09:31:57.738Z,99655.34
2022-09-23T09:34:24.145Z,99668.00
2022-09-23T09:37:12.879Z,99491.66
2022-09-23T09:39:39.413Z,99543.28
2022-09-23T09:42:06.504Z,99598.16
2022-09-23T09:44:42.366Z,99636.81
2022-09-23T09:47:21.977Z,99618.25
2022-09-23T09:49:49.631Z,99657.38
2022-09-23T09:52:20.615Z,99624.59
2022-09-23T09:54:49.396Z,99696.44
2022-09-23T09:57:33.588Z,99693.25
2022-09-23T10:00:27.836Z,99704.00
2022-09-23T10:03:01.163Z,99725.25
2022-09-23T10:05:28.478Z,99753.97
2022-09-23T10:07:55.014Z,99841.13
2022-09-23T10:10:33.787Z,99951.50
2022-09-23T10:13:14.030Z,99948.56
2022-09-23T10:15:44.706Z,99955.22
2022-09-23T10:18:42.379Z,99882.13
2022-09-23T10:21:15.296Z,99794.91
2022-09-23T10:23:45.641Z,99763.72
2022-09-23T10:26:12.590Z,99782.97
2022-09-23T10:28:44.660Z,99790.34
2022-09-23T10:31:25.677Z,99988.44
2022-09-23T10:33:59.577Z,99998.75
2022-09-23T10:36:27.282Z,100147.31
2022-09-23T10:39:21.535Z,100178.19
2022-09-23T10:42:15.242Z,100321.09
2022-09-23T10:45:20.672Z,100594.72
2022-09-23T10:48:02.238Z,100617.94
2022-09-23T10:50:41.973Z,100675.63
2022-09-23T10:53:42.086Z,100712.44
2022-09-23T10:56:30.418Z,100711.44
2022-09-23T10:59:02.891Z,100738.34
2022-09-23T11:01:41.713Z,100757.94
2022-09-23T11:04:14.560Z,100794.75
2022-09-23T11:07:03.048Z,100837.38
2022-09-23T11:09:51.308Z,100856.84
2022-09-23T11:12:39.909Z,100889.25
2022-09-23T11:15:07.537Z,100882.53
2022-09-23T11:18:02.746Z,100882.50
2022-09-23T11:21:10.525Z,100887.25
2022-09-23T11:23:40.863Z,100888.84
2022-09-23T11:26:30.583Z,100882.25
2022-09-23T11:29:37.086Z,100888.41
2022-09-23T11:32:06.500Z,100890.75
2022-09-23T11:34:43.911Z,100891.94
2022-09-23T11:37:14.489Z,100890.00
2022-09-23T11:39:55.054Z,100897.44
2022-09-23T11:42:24.887Z,100891.94
2022-09-23T11:45:13.456Z,100881.16
2022-09-23T11:48:04.270Z,100885.38
2022-09-23T11:50:38.227Z,100883.06
2022-09-23T11:53:09.018Z,100871.13
2022-09-23T11:55:50.486Z,100870.59
2022-09-23T11:58:30.944Z,100880.34
2022-09-23T12:01:01.292Z,100870.72
2022-09-23T12:04:00.017Z,100864.91
2022-09-23T12:06:46.336Z,100872.00
2022-09-23T12:09:16.885Z,100875.31
2022-09-23T12:11:52.095Z,100866.75
2022-09-23T12:14:24.807Z,100865.22
2022-09-23T12:17:28.747Z,100863.09
2022-09-23T12:20:01.254Z,100860.38
2022-09-23T12:22:46.097Z,100864.34
2022-09-23T12:25:57.907Z,100853.03
2022-09-23T12:28:27.183Z,100852.91
2022-09-23T12:30:54.628Z,100851.19
2022-09-23T12:33:26.351Z,100847.13
2022-09-23T12:36:01.623Z,100852.47
2022-09-23T12:38:58.275Z,100847.03
2022-09-23T12:41:37.430Z,100851.81
2022-09-23T12:44:13.856Z,100855.13
2022-09-23T12:46:44.234Z,100856.72
2022-09-23T12:49:37.190Z,100853.69
2022-09-23T12:52:12.613Z,100853.97
2022-09-23T12:54:39.737Z,100837.44
2022-09-23T12:57:13.207Z,100846.06
2022-09-23T12:59:52.568Z,100839.22
2022-09-23T13:02:26.775Z,100832.97
2022-09-23T13:05:19.994Z,100831.06
2022-09-23T13:07:47.672Z,100835.19
2022-09-23T13:10:28.644Z,100832.16
2022-09-23T13:12:55.809Z,100831.91
2022-09-23T13:15:33.038Z,100834.28
2022-09-23T13:18:21.158Z,100839.97
2022-09-23T13:20:48.732Z,100837.69
2022-09-23T13:23:24.185Z,100825.91
2022-09-23T13:25:51.999Z,100818.88
2022-09-23T13:28:27.186Z,100820.59
2022-09-23T13:30:53.662Z,100818.50
2022-09-23T13:33:42.501Z,100807.69
2022-09-23T13:36:14.032Z,100814.25
2022-09-23T13:38:40.753Z,100806.34
2022-09-23T13:41:15.308Z,100796.81
2022-09-23T13:43:42.572Z,100803.34
2022-09-23T13:46:38.224Z,100792.59
2022-09-23T13:49:04.615Z,100797.34
2022-09-23T13:51:33.514Z,100789.44
2022-09-23T13:54:01.082Z,100796.38
2022-09-23T13:56:29.478Z,100790.94
2022-09-23T13:59:24.607Z,100783.22
2022-09-23T14:01:51.113Z,100791.75
2022-09-23T14:04:24.980Z,100783.44
2022-09-23T14:06:52.318Z,100787.97
2022-09-23T14:09:18.759Z,100784.00
2022-09-23T14:11:45.162Z,100779.03
2022-09-23T14:14:12.358Z,100775.63
2022-09-23T14:16:39.569Z,100777.81
2022-09-23T14:19:07.991Z,100776.59
2022-09-23T14:21:38.435Z,100770.16
2022-09-23T14:24:14.881Z,100777.72
2022-09-23T14:27:08.535Z,100762.13
2022-09-23T14:29:39.425Z,100766.59
2022-09-23T14:32:13.832Z,100765.22
2022-09-23T14:35:05.308Z,100763.53
2022-09-23T14:37:50.023Z,100767.25
2022-09-23T14:40:24.862Z,100771.38
2022-09-23T14:43:17.362Z,100761.69
2022-09-23T14:45:45.566Z,100756.44
2022-09-23T14:48:17.553Z,100761.59
2022-09-23T14:50:48.839Z,100748.00
2022-09-23T14:53:24.243Z,100756.78
2022-09-23T14:55:57.359Z,100750.91
2022-09-23T14:58:26.875Z,100757.75
2022-09-23T15:01:00.933Z,100748.31
2022-09-23T15:03:31.744Z,100742.44
2022-09-23T15:06:08.614Z,100754.59
2022-09-23T15:08:35.463Z,100751.47
2022-09-23T15:11:08.145Z,100742.59
2022-09-23T15:13:38.178Z,100742.69
2022-09-23T15:16:05.567Z,100733.47
2022-09-23T15:18:36.562Z,100728.56
2022-09-23T15:21:14.519Z,100736.69
2022-09-23T15:23:41.411Z,100741.03
2022-09-23T15:26:18.723Z,100741.56
2022-09-23T15:28:45.371Z,100742.69
2022-09-23T15:31:18.556Z,100742.47
2022-09-23T15:33:46.339Z,100738.81
2022-09-23T15:36:17.477Z,100733.78
2022-09-23T15:38:43.904Z,100740.34
2022-09-23T15:41:10.308Z,100738.13
2022-09-23T15:43:37.663Z,100735.34
2022-09-23T15:46:08.440Z,100740.50
2022-09-23T15:48:40.607Z,100724.22
2022-09-23T15:51:08.079Z,100693.88
2022-09-23T15:53:34.516Z,100692.16
2022-09-23T15:56:01.135Z,100688.44
2022-09-23T15:58:27.642Z,100694.78
2022-09-23T16:00:56.748Z,100634.72
2022-09-23T16:03:28.253Z,100600.16
2022-09-23T16:05:58.064Z,100600.59
2022-09-23T16:08:25.743Z,100550.94
2022-09-23T16:10:52.489Z,100606.91
2022-09-23T16:13:19.041Z,100584.94
2022-09-23T16:15:45.489Z,100489.38
2022-09-23T16:18:12.004Z,100327.53
2022-09-23T16:20:39.872Z,100320.03
2022-09-23T16:23:39.666Z,100057.84
2022-09-23T16:26:18.499Z,99816.78
2022-09-23T16:28:45.596Z,99780.53
2022-09-23T16:31:12.107Z,100045.97
2022-09-23T16:33:38.689Z,99867.06
2022-09-23T16:36:05.809Z,99764.56
2022-09-23T16:38:32.543Z,99650.72
2022-09-23T16:41:00.351Z,99590.69
2022-09-23T16:43:32.621Z,99534.63
2022-09-23T16:45:59.125Z,99506.88
2022-09-23T16:48:25.665Z,99425.03
2022-09-23T16:50:53.939Z,99373.41
2022-09-23T16:53:20.468Z,99287.75
2022-09-23T16:55:46.870Z,99276.88
2022-09-23T16:58:13.237Z,99263.25
2022-09-23T17:00:58.344Z,99223.06
2022-09-23T17:03:40.871Z,99188.53
2022-09-23T17:06:10.338Z,99161.59
2022-09-23T17:08:36.693Z,99105.81
2022-09-23T17:11:03.446Z,99037.56
2022-09-23T17:13:29.901Z,98951.78
2022-09-23T17:15:56.462Z,98864.38
2022-09-23T17:18:22.981Z,98797.06
2022-09-23T17:21:03.851Z,98745.56
2022-09-23T17:23:31.726Z,98657.22
2022-09-23T17:25:59.304Z,98615.25
2022-09-23T17:28:25.716Z,98703.53
2022-09-23T17:30:57.666Z,98779.53
2022-09-23T17:33:24.997Z,98830.09
2022-09-23T17:35:51.956Z,98894.72
2022-09-23T17:38:18.416Z,98859.28
2022-09-23T17:40:54.793Z,98773.41
2022-09-23T17:43:25.273Z,98782.72
2022-09-23T17:45:52.439Z,98748.88
2022-09-23T17:48:20.128Z,98717.56
2022-09-23T17:51:19.782Z,98732.13
2022-09-23T17:53:46.673Z,98721.22
2022-09-23T17:56:24.892Z,98724.38
2022-09-23T17:58:51.541Z,98728.94
2022-09-23T18:01:19.986Z,98688.53
2022-09-23T18:03:47.280Z,98744.94
2022-09-23T18:06:18.762Z,98766.97
2022-09-23T18:08:46.475Z,98734.47
2022-09-23T18:11:19.503Z,98933.66
2022-09-23T18:13:55.482Z,98862.50
2022-09-23T18:16:23.628Z,98851.94
2022-09-23T18:18:51.686Z,98795.03
2022-09-23T18:21:19.060Z,98784.69
2022-09-23T18:23:46.207Z,98684.13
2022-09-23T18:26:17.111Z,98637.97
2022-09-23T18:28:43.593Z,98615.44
2022-09-23T18:31:10.326Z,98579.81
2022-09-23T18:33:36.974Z,98573.94
2022-09-23T18:36:04.677Z,98566.16
2022-09-23T18:38:31.235Z,98543.63
2022-09-23T18:40:58.053Z,98485.91
2022-09-23T18:43:37.247Z,98461.47
2022-09-23T18:46:09.596Z,98437.88
2022-09-23T18:48:54.738Z,98391.53
2022-09-23T18:51:22.234Z,98306.53
2022-09-23T18:53:50.147Z,98273.28
2022-09-23T18:56:17.868Z,98258.44
2022-09-23T18:58:47.935Z,98220.13
2022-09-23T19:01:14.519Z,98197.50
2022-09-23T19:03:41.159Z,98187.09
2022-09-23T19:06:11.941Z,98143.28
2022-09-23T19:08:38.401Z,98067.88
2022-09-23T19:11:05.918Z,98022.41
2022-09-23T19:13:32.841Z,98044.44
2022-09-23T19:16:03.784Z,98018.13
2022-09-23T19:18:31.037Z,98040.13
2022-09-23T19:21:04.827Z,97994.66
2022-09-23T19:23:34.820Z,97926.34
2022-09-23T19:26:05.834Z,97878.25
2022-09-23T19:28:32.339Z,97856.34
2022-09-23T19:30:58.994Z,97828.38
2022-09-23T19:33:25.474Z,97784.84
2022-09-23T19:35:53.464Z,97744.66
2022-09-23T19:38:21.358Z,97704.47
2022-09-23T19:40:50.040Z,97688.00
2022-09-23T19:43:17.758Z,97627.72
2022-09-23T19:45:44.561Z,97569.81
2022-09-23T19:48:10.956Z,97495.31
2022-09-23T19:50:38.656Z,97420.81
2022-09-23T19:53:06.087Z,97356.00
2022-09-23T19:55:34.791Z,97299.22
2022-09-23T19:58:01.365Z,97231.09
2022-09-23T20:00:27.934Z,97179.59
2022-09-23T20:02:54.851Z,97144.69
2022-09-23T20:05:21.469Z,97106.47
2022-09-23T20:07:47.903Z,97075.22
2022-09-23T20:10:14.416Z,97027.03
2022-09-23T20:12:42.276Z,97020.00
2022-09-23T20:15:10.796Z,97029.00
2022-09-23T20:17:38.393Z,96994.94
2022-09-23T20:20:05.041Z,96973.91
2022-09-23T20:22:33.694Z,96942.34
2022-09-23T20:25:00.699Z,96905.53
2022-09-23T20:27:28.954Z,96867.06
2022-09-23T20:29:56.986Z,96832.19
2022-09-23T20:32:24.485Z,96781.25
2022-09-23T20:34:51.860Z,96759.22
2022-09-23T20:37:18.802Z,96737.50
2022-09-23T20:39:45.637Z,96713.19
2022-09-23T20:42:13.569Z,96684.25
2022-09-23T20:44:40.605Z,96630.97
2022-09-23T20:47:07.323Z,96597.78
2022-09-23T20:49:34.362Z,96578.38
2022-09-23T20:52:03.947Z,96551.28
2022-09-23T20:54:31.370Z,96541.91
2022-09-23T20:56:58.260Z,96501.78
2022-09-23T20:59:27.339Z,96477.47
2022-09-23T21:01:57.115Z,96450.47
2022-09-23T21:04:24.356Z,96432.09
2022-09-23T21:06:54.155Z,96420.75
2022-09-23T21:09:20.637Z,96409.41
2022-09-23T21:11:47.027Z,96400.03
2022-09-23T21:14:13.421Z,96399.22
2022-09-23T21:16:39.959Z,96405.41
2022-09-23T21:19:09.320Z,96397.53
2022-09-23T21:21:35.783Z,96402.78
2022-09-23T21:24:24.467Z,96401.97
2022-09-23T21:26:50.426Z,96398.53
2022-09-23T21:29:17.111Z,96383.59
2022-09-23T21:31:43.578Z,96387.00
2022-09-23T21:34:14.524Z,96376.50
2022-09-23T21:36:42.808Z,96369.59
2022-09-23T21:39:10.460Z,96337.41
2022-09-23T21:41:37.237Z,96333.13
2022-09-23T21:44:07.846Z,96322.59
2022-09-23T21:46:35.085Z,96297.31
2022-09-23T21:49:03.919Z,96266.75
2022-09-23T21:51:40.498Z,96259.84
2022-09-23T21:54:11.595Z,96242.44
2022-09-23T21:56:38.063Z,96243.56
2022-09-23T21:59:05.147Z,96226.00
2022-09-23T22:01:34.890Z,96200.72
2022-09-23T22:04:05.204Z,96209.91
2022-09-23T22:06:31.817Z,96215.16
2022-09-23T22:09:02.434Z,96244.72
2022-09-23T22:11:51.634Z,96239.47
2022-09-23T22:14:18.922Z,96225.69
2022-09-23T22:16:45.438Z,96199.41
2022-09-23T22:19:12.550Z,96181.00
2022-09-23T22:21:39.930Z,96218.78
2022-09-23T22:24:07.619Z,96226.66
2022-09-23T22:26:34.980Z,96204.00
2022-09-23T22:29:20.130Z,96212.22
2022-09-23T22:32:05.311Z,96224.50
2022-09-23T22:34:49.237Z,96224.34
2022-09-23T22:37:18.653Z,96216.47
2022-09-23T22:39:45.326Z,96214.69
2022-09-23T22:42:13.021Z,96240.13
2022-09-23T22:44:39.420Z,96245.38
2022-09-23T22:47:05.935Z,96219.09
2022-09-23T22:49:32.385Z,96204.16
2022-09-23T22:51:59.379Z,96178.69
2022-09-23T22:54:33.375Z,96161.28
2022-09-23T22:57:03.175Z,96147.16
2022-09-23T22:59:29.724Z,96093.63
2022-09-23T23:01:57.160Z,96025.31
2022-09-23T23:04:23.761Z,95959.63
2022-09-23T23:06:50.171Z,95879.13
2022-09-23T23:09:17.440Z,95826.56
2022-09-23T23:11:44.485Z,95778.47
2022-09-23T23:14:11.803Z,95723.47
2022-09-23T23:16:38.642Z,95655.16
2022-09-23T23:19:06.622Z,95625.59
2022-09-23T23:21:33.578Z,95599.31
2022-09-23T23:24:00.108Z,95543.53
2022-09-23T23:26:27.944Z,95502.31
2022-09-23T23:28:54.697Z,95417.41
2022-09-23T23:31:23.554Z,95294.13
2022-09-23T23:33:50.118Z,95170.84
2022-09-23T23:36:18.135Z,95077.94
2022-09-23T23:38:45.766Z,94967.59
2022-09-23T23:41:16.864Z,94943.97
2022-09-23T23:43:45.979Z,94928.22
2022-09-23T23:46:13.121Z,94938.72
2022-09-23T23:48:39.906Z,94946.59
2022-09-23T23:51:07.569Z,94941.34
2022-09-23T23:53:35.973Z,94919.50
2022-09-23T23:56:03.679Z,94905.78
2022-09-23T23:58:30.109Z,94909.19
